createdAt,value
2023-06-30T00:00:39.044Z,97395.38
2023-06-30T00:02:40.737Z,97399.69
2023-06-30T00:04:42.187Z,97392.00
2023-06-30T00:06:43.520Z,97397.03
2023-06-30T00:08:44.849Z,97393.50
2023-06-30T00:10:46.196Z,97390.81
2023-06-30T00:12:47.533Z,97390.69
2023-06-30T00:14:48.863Z,97386.50
2023-06-30T00:16:50.953Z,97388.25
2023-06-30T00:18:56.748Z,97393.25
2023-06-30T00:20:58.602Z,97383.78
2023-06-30T00:22:59.945Z,97382.13
2023-06-30T00:25:01.268Z,97381.28
2023-06-30T00:27:02.591Z,97380.47
2023-06-30T00:29:03.921Z,97388.22
2023-06-30T00:31:05.533Z,97376.28
2023-06-30T00:33:06.942Z,97385.69
2023-06-30T00:35:08.348Z,97377.97
2023-06-30T00:37:09.711Z,97377.13
2023-06-30T00:39:11.111Z,97370.34
2023-06-30T00:41:12.441Z,97375.28
2023-06-30T00:43:13.792Z,97360.81
2023-06-30T00:45:15.115Z,97363.31
2023-06-30T00:47:16.492Z,97359.00
2023-06-30T00:49:17.872Z,97358.19
2023-06-30T00:51:19.207Z,97356.47
2023-06-30T00:53:20.575Z,97354.81
2023-06-30T00:55:21.967Z,97356.56
2023-06-30T00:57:23.335Z,97350.66
2023-06-30T00:59:24.660Z,97360.09
2023-06-30T01:01:26.068Z,97353.22
2023-06-30T01:03:27.607Z,97354.84
2023-06-30T01:05:29.186Z,97347.25
2023-06-30T01:07:30.680Z,97341.38
2023-06-30T01:09:32.043Z,97342.28
2023-06-30T01:11:33.364Z,97336.34
2023-06-30T01:13:34.718Z,97336.34
2023-06-30T01:15:36.055Z,97331.94
2023-06-30T01:17:46.695Z,97332.84
2023-06-30T01:19:48.948Z,97331.94
2023-06-30T01:21:51.318Z,97326.81
2023-06-30T01:23:52.645Z,97327.59
2023-06-30T01:25:54.155Z,97330.22
2023-06-30T01:27:55.523Z,97326.81
2023-06-30T01:29:56.834Z,97323.44
2023-06-30T01:31:58.164Z,97323.47
2023-06-30T01:33:59.496Z,97326.03
2023-06-30T01:36:00.865Z,97324.38
2023-06-30T01:38:03.476Z,97321.75
2023-06-30T01:40:05.475Z,97325.16
2023-06-30T01:42:06.860Z,97325.19
2023-06-30T01:44:08.243Z,97327.03
2023-06-30T01:46:09.656Z,97323.44
2023-06-30T01:48:11.032Z,97316.56
2023-06-30T01:50:12.400Z,97315.75
2023-06-30T01:52:13.780Z,97310.69
2023-06-30T01:54:15.185Z,97314.13
2023-06-30T01:56:16.600Z,97304.81
2023-06-30T01:58:17.924Z,97308.19
2023-06-30T02:00:19.329Z,97301.44
2023-06-30T02:02:20.692Z,97307.34
2023-06-30T02:04:22.386Z,97309.00
2023-06-30T02:06:23.722Z,97305.53
2023-06-30T02:08:25.059Z,97302.13
2023-06-30T02:10:26.547Z,97303.00
2023-06-30T02:12:27.889Z,97306.41
2023-06-30T02:14:29.311Z,97304.81
2023-06-30T02:16:30.703Z,97305.56
2023-06-30T02:18:32.256Z,97301.31
2023-06-30T02:20:33.864Z,97307.28
2023-06-30T02:22:35.279Z,97301.31
2023-06-30T02:24:36.651Z,97303.06
2023-06-30T02:26:37.971Z,97309.91
2023-06-30T02:28:39.297Z,97298.75
2023-06-30T02:30:40.639Z,97301.41
2023-06-30T02:32:42.431Z,97296.31
2023-06-30T02:34:43.781Z,97292.94
2023-06-30T02:36:45.137Z,97293.75
2023-06-30T02:38:46.460Z,97287.81
2023-06-30T02:40:47.802Z,97284.41
2023-06-30T02:42:49.421Z,97282.91
2023-06-30T02:44:50.803Z,97284.88
2023-06-30T02:46:52.123Z,97282.72
2023-06-30T02:48:53.473Z,97278.03
2023-06-30T02:50:54.803Z,97278.31
2023-06-30T02:52:56.123Z,97280.25
2023-06-30T02:54:57.542Z,97275.31
2023-06-30T02:56:58.906Z,97272.91
2023-06-30T02:59:00.308Z,97279.91
2023-06-30T03:01:01.697Z,97280.06
2023-06-30T03:03:05.771Z,97270.78
2023-06-30T03:05:08.165Z,97269.31
2023-06-30T03:07:09.613Z,97271.16
2023-06-30T03:09:10.996Z,97273.00
2023-06-30T03:11:12.449Z,97271.31
2023-06-30T03:13:13.776Z,97264.59
2023-06-30T03:15:15.105Z,97265.56
2023-06-30T03:17:16.477Z,97262.16
2023-06-30T03:19:17.870Z,97266.50
2023-06-30T03:21:19.212Z,97264.03
2023-06-30T03:23:20.981Z,97268.31
2023-06-30T03:25:22.811Z,97261.59
2023-06-30T03:27:24.253Z,97268.50
2023-06-30T03:29:25.613Z,97269.31
2023-06-30T03:31:27.108Z,97262.53
2023-06-30T03:33:28.569Z,97267.69
2023-06-30T03:35:29.945Z,97261.75
2023-06-30T03:37:32.091Z,97266.06
2023-06-30T03:39:33.792Z,97266.09
2023-06-30T03:41:35.166Z,97267.81
2023-06-30T03:43:36.495Z,97271.28
2023-06-30T03:45:39.474Z,97258.53
2023-06-30T03:47:40.990Z,97264.56
2023-06-30T03:49:42.371Z,97265.44
2023-06-30T03:51:43.754Z,97257.75
2023-06-30T03:53:45.107Z,97264.59
2023-06-30T03:55:46.834Z,97127.69
2023-06-30T03:57:48.428Z,97263.00
2023-06-30T03:59:49.759Z,97263.00
2023-06-30T04:01:51.133Z,97269.81
2023-06-30T04:03:52.955Z,97255.41
2023-06-30T04:05:54.467Z,97267.34
2023-06-30T04:07:56.014Z,97263.94
2023-06-30T04:09:57.536Z,97268.22
2023-06-30T04:11:58.883Z,97270.78
2023-06-30T04:14:03.166Z,97266.63
2023-06-30T04:16:04.600Z,97268.34
2023-06-30T04:18:05.983Z,97270.88
2023-06-30T04:20:11.054Z,97263.22
2023-06-30T04:22:12.551Z,97268.41
2023-06-30T04:24:13.973Z,97264.13
2023-06-30T04:26:18.330Z,97260.81
2023-06-30T04:28:19.676Z,97264.16
2023-06-30T04:30:21.006Z,97245.47
2023-06-30T04:32:22.415Z,97260.81
2023-06-30T04:34:23.791Z,97258.28
2023-06-30T04:36:25.119Z,97260.00
2023-06-30T04:38:26.580Z,97265.97
2023-06-30T04:40:34.109Z,97268.56
2023-06-30T04:42:35.583Z,97266.88
2023-06-30T04:44:38.170Z,97261.75
2023-06-30T04:46:39.599Z,97262.59
2023-06-30T04:48:41.155Z,97262.63
2023-06-30T04:50:42.572Z,97256.72
2023-06-30T04:52:43.892Z,97261.00
2023-06-30T04:54:45.304Z,97259.31
2023-06-30T04:56:46.682Z,97261.84
2023-06-30T04:58:48.022Z,97254.19
2023-06-30T05:00:50.688Z,97255.91
2023-06-30T05:02:52.168Z,97254.28
2023-06-30T05:04:53.520Z,97256.81
2023-06-30T05:06:54.934Z,97255.16
2023-06-30T05:08:56.329Z,97256.81
2023-06-30T05:10:57.662Z,97262.81
2023-06-30T05:12:58.998Z,97259.44
2023-06-30T05:15:00.390Z,97267.09
2023-06-30T05:17:01.831Z,97254.31
2023-06-30T05:19:03.627Z,97243.28
2023-06-30T05:21:05.584Z,97248.38
2023-06-30T05:23:06.910Z,97253.50
2023-06-30T05:25:08.424Z,97249.19
2023-06-30T05:27:09.747Z,97251.81
2023-06-30T05:29:11.876Z,97263.72
2023-06-30T05:31:13.345Z,97254.38
2023-06-30T05:33:14.686Z,97256.94
2023-06-30T05:35:16.095Z,97256.09
2023-06-30T05:37:17.459Z,97261.22
2023-06-30T05:39:18.829Z,97265.47
2023-06-30T05:41:20.168Z,97264.66
2023-06-30T05:43:21.542Z,97267.19
2023-06-30T05:45:22.864Z,97268.13
2023-06-30T05:47:24.209Z,97271.56
2023-06-30T05:49:25.588Z,97266.44
2023-06-30T05:51:26.920Z,97268.16
2023-06-30T05:53:28.341Z,97277.56
2023-06-30T05:55:29.682Z,97275.00
2023-06-30T05:57:31.078Z,97281.00
2023-06-30T05:59:32.408Z,97279.28
2023-06-30T06:01:33.729Z,97282.72
2023-06-30T06:03:35.239Z,97274.22
2023-06-30T06:05:36.933Z,97277.59
2023-06-30T06:07:38.583Z,97281.00
2023-06-30T06:09:39.994Z,97271.63
2023-06-30T06:11:41.423Z,97265.59
2023-06-30T06:13:43.070Z,97272.47
2023-06-30T06:15:44.657Z,97275.00
2023-06-30T06:17:46.244Z,97280.13
2023-06-30T06:19:47.625Z,97281.84
2023-06-30T06:21:48.971Z,97281.00
2023-06-30T06:23:50.300Z,97277.59
2023-06-30T06:25:51.717Z,97278.53
2023-06-30T06:27:53.037Z,97275.13
2023-06-30T06:29:54.360Z,97273.44
2023-06-30T06:31:55.705Z,97270.88
2023-06-30T06:33:57.034Z,97269.22
2023-06-30T06:35:58.365Z,97277.72
2023-06-30T06:37:59.698Z,97279.41
2023-06-30T06:40:01.037Z,97276.84
2023-06-30T06:42:02.387Z,97282.81
2023-06-30T06:44:03.712Z,97283.66
2023-06-30T06:46:05.126Z,97283.66
2023-06-30T06:48:06.504Z,97273.44
2023-06-30T06:50:08.335Z,97280.22
2023-06-30T06:52:09.672Z,97281.13
2023-06-30T06:54:11.034Z,97279.41
2023-06-30T06:56:12.365Z,97270.00
2023-06-30T06:58:13.750Z,97266.63
2023-06-30T07:00:15.121Z,97264.91
2023-06-30T07:02:16.446Z,97262.34
2023-06-30T07:04:17.804Z,97261.44
2023-06-30T07:06:19.795Z,97262.34
2023-06-30T07:08:21.275Z,97262.34
2023-06-30T07:10:25.508Z,97269.16
2023-06-30T07:12:26.888Z,97265.72
2023-06-30T07:14:28.212Z,97266.63
2023-06-30T07:16:29.576Z,97264.91
2023-06-30T07:18:31.184Z,97259.78
2023-06-30T07:20:33.150Z,97255.56
2023-06-30T07:22:34.876Z,97253.00
2023-06-30T07:24:43.450Z,97262.34
2023-06-30T07:26:45.356Z,97253.84
2023-06-30T07:28:48.313Z,97253.00
2023-06-30T07:30:49.842Z,97258.94
2023-06-30T07:32:51.252Z,97252.13
2023-06-30T07:34:52.655Z,97256.38
2023-06-30T07:36:54.013Z,97242.72
2023-06-30T07:38:55.375Z,97245.28
2023-06-30T07:40:57.720Z,97247.00
2023-06-30T07:43:00.374Z,97247.00
2023-06-30T07:45:01.790Z,97250.41
2023-06-30T07:47:03.247Z,97256.31
2023-06-30T07:49:04.604Z,97252.88
2023-06-30T07:51:09.782Z,97250.41
2023-06-30T07:53:11.721Z,97257.22
2023-06-30T07:55:14.000Z,97253.75
2023-06-30T07:57:15.452Z,97257.22
2023-06-30T07:59:16.768Z,97259.78
2023-06-30T08:01:18.097Z,97260.63
2023-06-30T08:03:21.248Z,97254.66
2023-06-30T08:05:23.294Z,97256.31
2023-06-30T08:07:47.989Z,97259.78
2023-06-30T08:09:46.028Z,97255.50
2023-06-30T08:11:47.349Z,97258.88
2023-06-30T08:13:48.762Z,97261.44
2023-06-30T08:15:50.422Z,97262.34
2023-06-30T08:17:57.226Z,97259.78
2023-06-30T08:20:00.124Z,97258.94
2023-06-30T08:22:02.957Z,97263.22
2023-06-30T08:24:04.493Z,97261.53
2023-06-30T08:26:05.942Z,97259.91
2023-06-30T08:28:07.312Z,97263.31
2023-06-30T08:30:08.699Z,97265.88
2023-06-30T08:32:10.117Z,97266.78
2023-06-30T08:34:11.674Z,97271.91
2023-06-30T08:36:12.992Z,97271.91
2023-06-30T08:38:14.319Z,97275.34
2023-06-30T08:40:15.645Z,97281.28
2023-06-30T08:42:17.007Z,97280.53
2023-06-30T08:44:18.789Z,97291.56
2023-06-30T08:46:20.286Z,97291.63
2023-06-30T08:48:21.700Z,97297.56
2023-06-30T08:50:23.639Z,97288.22
2023-06-30T08:52:25.019Z,97285.66
2023-06-30T08:54:26.455Z,97294.22
2023-06-30T08:56:27.786Z,97284.00
2023-06-30T08:58:29.310Z,97290.78
2023-06-30T09:00:30.696Z,97280.63
2023-06-30T09:02:32.192Z,97290.00
2023-06-30T09:04:33.674Z,97283.22
2023-06-30T09:06:35.027Z,97281.50
2023-06-30T09:08:36.354Z,97283.22
2023-06-30T09:10:38.501Z,97281.56
2023-06-30T09:12:40.505Z,97286.69
2023-06-30T09:14:41.856Z,97281.56
2023-06-30T09:16:43.220Z,97277.34
2023-06-30T09:18:44.686Z,97294.38
2023-06-30T09:20:46.012Z,97276.50
2023-06-30T09:22:53.507Z,97273.94
2023-06-30T09:24:56.914Z,97273.94
2023-06-30T09:26:58.265Z,97273.94
2023-06-30T09:28:59.612Z,97269.66
2023-06-30T09:31:03.129Z,97268.84
2023-06-30T09:33:04.575Z,97270.50
2023-06-30T09:35:06.027Z,97272.22
2023-06-30T09:37:07.438Z,97276.47
2023-06-30T09:39:09.868Z,97277.34
2023-06-30T09:41:11.192Z,97276.50
2023-06-30T09:43:12.608Z,97275.66
2023-06-30T09:45:13.971Z,97285.88
2023-06-30T09:47:15.365Z,97284.22
2023-06-30T09:49:16.716Z,97273.09
2023-06-30T09:51:20.627Z,97277.41
2023-06-30T09:53:22.005Z,97283.41
2023-06-30T09:55:23.398Z,97274.88
2023-06-30T09:57:24.777Z,97109.22
2023-06-30T09:59:26.295Z,97279.16
2023-06-30T10:01:27.688Z,97278.28
2023-06-30T10:03:29.309Z,97277.44
2023-06-30T10:05:31.113Z,97277.44
2023-06-30T10:07:32.844Z,97273.16
2023-06-30T10:09:34.367Z,97272.34
2023-06-30T10:11:35.770Z,97279.13
2023-06-30T10:13:37.152Z,97277.41
2023-06-30T10:15:38.510Z,97276.56
2023-06-30T10:17:40.088Z,97279.97
2023-06-30T10:19:41.523Z,97277.41
2023-06-30T10:21:42.990Z,97280.78
2023-06-30T10:23:44.336Z,97275.66
2023-06-30T10:25:45.888Z,97276.56
2023-06-30T10:27:47.497Z,97278.22
2023-06-30T10:29:48.899Z,97269.75
2023-06-30T10:31:50.309Z,97278.22
2023-06-30T10:33:53.272Z,97277.34
2023-06-30T10:35:56.022Z,97269.75
2023-06-30T10:37:57.450Z,97268.91
2023-06-30T10:39:59.988Z,97272.28
2023-06-30T10:42:02.179Z,97265.50
2023-06-30T10:44:03.532Z,97264.66
2023-06-30T10:46:05.308Z,97268.94
2023-06-30T10:48:06.710Z,97267.31
2023-06-30T10:50:08.048Z,97271.56
2023-06-30T10:52:10.227Z,97269.84
2023-06-30T10:54:11.607Z,97279.22
2023-06-30T10:56:13.015Z,97264.78
2023-06-30T10:58:14.333Z,97269.84
2023-06-30T11:00:15.875Z,97262.19
2023-06-30T11:02:17.272Z,97263.00
2023-06-30T11:04:18.705Z,97269.84
2023-06-30T11:06:20.884Z,97280.06
2023-06-30T11:08:22.214Z,97257.06
2023-06-30T11:10:23.774Z,97256.22
2023-06-30T11:12:25.112Z,97257.06
2023-06-30T11:14:26.484Z,97250.22
2023-06-30T11:16:27.838Z,97249.34
2023-06-30T11:18:29.263Z,97250.16
2023-06-30T11:20:31.938Z,97250.16
2023-06-30T11:22:33.303Z,97245.06
2023-06-30T11:24:34.633Z,97237.41
2023-06-30T11:26:35.969Z,97240.78
2023-06-30T11:28:37.387Z,97242.44
2023-06-30T11:30:39.994Z,97230.50
2023-06-30T11:32:44.341Z,97230.50
2023-06-30T11:34:45.703Z,97236.38
2023-06-30T11:36:47.219Z,97232.09
2023-06-30T11:38:48.549Z,97227.75
2023-06-30T11:40:51.239Z,97224.34
2023-06-30T11:42:55.442Z,97220.94
2023-06-30T11:44:56.865Z,97216.66
2023-06-30T11:46:59.397Z,97214.09
2023-06-30T11:49:00.760Z,97219.97
2023-06-30T11:51:02.221Z,97208.97
2023-06-30T11:53:03.553Z,97204.63
2023-06-30T11:55:04.911Z,97201.97
2023-06-30T11:57:06.248Z,97193.44
2023-06-30T11:59:08.395Z,97192.47
2023-06-30T12:01:09.726Z,97194.16
2023-06-30T12:03:11.139Z,97196.66
2023-06-30T12:05:12.645Z,97183.78
2023-06-30T12:07:14.071Z,97182.03
2023-06-30T12:09:15.472Z,97184.53
2023-06-30T12:11:16.990Z,97183.53
2023-06-30T12:13:18.564Z,97183.53
2023-06-30T12:15:20.064Z,97178.25
2023-06-30T12:17:21.401Z,97182.50
2023-06-30T12:19:22.730Z,97171.44
2023-06-30T12:21:24.064Z,97174.06
2023-06-30T12:23:26.049Z,97169.16
2023-06-30T12:25:28.235Z,97172.56
2023-06-30T12:27:29.670Z,97161.50
2023-06-30T12:29:33.020Z,97168.34
2023-06-30T12:31:34.703Z,97165.88
2023-06-30T12:33:36.072Z,97166.75
2023-06-30T12:35:37.457Z,97168.41
2023-06-30T12:37:39.788Z,97166.63
2023-06-30T12:39:41.109Z,97163.13
2023-06-30T12:41:42.446Z,97173.22
2023-06-30T12:43:43.923Z,97168.88
2023-06-30T12:45:45.260Z,97163.72
2023-06-30T12:47:46.695Z,97166.97
2023-06-30T12:49:48.644Z,97158.34
2023-06-30T12:51:49.999Z,97162.50
2023-06-30T12:53:51.362Z,97166.72
2023-06-30T12:55:52.851Z,97165.88
2023-06-30T12:57:54.199Z,97164.97
2023-06-30T12:59:55.532Z,97161.63
2023-06-30T13:01:57.046Z,97166.72
2023-06-30T13:03:58.659Z,97156.44
2023-06-30T13:06:00.210Z,97156.44
2023-06-30T13:08:01.816Z,97155.59
2023-06-30T13:10:03.353Z,97160.66
2023-06-30T13:12:04.735Z,97150.34
2023-06-30T13:14:06.141Z,97156.22
2023-06-30T13:16:07.486Z,97146.91
2023-06-30T13:18:08.893Z,97151.06
2023-06-30T13:20:10.521Z,97145.03
2023-06-30T13:22:13.291Z,97143.31
2023-06-30T13:24:14.670Z,97134.78
2023-06-30T13:26:16.036Z,97133.19
2023-06-30T13:28:17.367Z,97128.94
2023-06-30T13:30:18.729Z,97137.66
2023-06-30T13:32:20.158Z,97129.25
2023-06-30T13:34:21.573Z,97126.78
2023-06-30T13:36:22.948Z,97121.78
2023-06-30T13:38:24.277Z,97124.38
2023-06-30T13:40:25.694Z,97122.72
2023-06-30T13:42:27.098Z,97120.22
2023-06-30T13:44:31.258Z,97123.69
2023-06-30T13:46:32.691Z,97113.47
2023-06-30T13:48:34.131Z,97115.16
2023-06-30T13:50:35.517Z,97110.91
2023-06-30T13:52:36.873Z,97104.13
2023-06-30T13:54:39.307Z,97109.25
2023-06-30T13:56:40.702Z,97112.81
2023-06-30T13:58:42.021Z,97111.16
2023-06-30T14:00:47.775Z,97118.91
2023-06-30T14:02:49.410Z,97112.19
2023-06-30T14:04:50.922Z,97114.78
2023-06-30T14:06:55.238Z,97114.84
2023-06-30T14:08:57.329Z,97116.66
2023-06-30T14:11:00.018Z,97113.28
2023-06-30T14:13:01.537Z,97113.56
2023-06-30T14:15:02.904Z,97113.69
2023-06-30T14:17:04.894Z,97113.44
2023-06-30T14:19:07.377Z,97111.91
2023-06-30T14:21:08.703Z,97114.34
2023-06-30T14:23:10.034Z,97124.19
2023-06-30T14:25:11.478Z,97115.31
2023-06-30T14:27:12.910Z,97118.69
2023-06-30T14:29:17.026Z,97121.66
2023-06-30T15:22:41.785Z,97142.31
2023-06-30T15:24:43.161Z,97147.41
2023-06-30T15:26:44.677Z,97152.53
2023-06-30T15:28:46.065Z,97149.97
2023-06-30T15:30:47.679Z,97146.53
2023-06-30T15:32:49.627Z,97151.66
2023-06-30T15:34:51.053Z,97147.41
2023-06-30T15:36:52.393Z,97145.69
2023-06-30T15:38:59.885Z,97148.28
2023-06-30T15:41:21.348Z,97155.97
2023-06-30T15:43:23.939Z,97160.22
2023-06-30T15:45:28.126Z,97157.66
2023-06-30T15:47:29.573Z,97156.78
2023-06-30T15:49:31.048Z,97161.91
2023-06-30T15:51:32.432Z,97163.63
2023-06-30T15:53:33.769Z,97155.41
2023-06-30T15:55:38.220Z,97160.81
2023-06-30T15:57:39.634Z,97158.25
2023-06-30T15:59:41.756Z,97159.66
2023-06-30T16:01:43.078Z,97154.84
2023-06-30T16:03:44.592Z,97158.34
2023-06-30T16:05:46.369Z,97162.53
2023-06-30T16:07:48.059Z,97161.44
2023-06-30T16:09:49.426Z,97155.84
2023-06-30T16:11:50.776Z,97169.34
2023-06-30T16:13:52.132Z,97158.56
2023-06-30T16:15:53.619Z,97164.72
2023-06-30T16:17:54.985Z,97172.47
2023-06-30T16:19:56.426Z,97172.41
2023-06-30T16:21:57.777Z,97170.59
2023-06-30T16:23:59.140Z,97168.81
2023-06-30T16:26:00.702Z,97165.44
2023-06-30T16:28:02.126Z,97170.16
2023-06-30T16:30:03.496Z,97163.91
2023-06-30T16:32:04.934Z,97164.72
2023-06-30T16:34:06.324Z,97159.59
2023-06-30T16:36:09.082Z,97034.03
2023-06-30T16:38:10.514Z,97167.91
2023-06-30T16:40:12.112Z,97160.72
2023-06-30T16:42:13.453Z,97166.03
2023-06-30T16:44:14.837Z,97163.91
2023-06-30T16:46:16.235Z,97180.34
2023-06-30T16:48:17.611Z,97163.88
2023-06-30T16:50:19.037Z,97161.38
2023-06-30T16:52:20.435Z,97157.91
2023-06-30T16:54:21.782Z,97160.28
2023-06-30T16:56:23.220Z,97162.81
2023-06-30T16:58:26.318Z,97153.84
2023-06-30T17:00:27.707Z,97161.88
2023-06-30T17:02:29.262Z,97165.16
2023-06-30T17:04:31.227Z,97163.34
2023-06-30T17:06:32.695Z,97170.25
2023-06-30T17:08:34.057Z,97175.50
2023-06-30T17:10:35.480Z,97183.19
2023-06-30T17:12:39.355Z,97179.78
2023-06-30T17:14:40.710Z,97170.38
2023-06-30T17:16:42.070Z,97174.66
2023-06-30T17:18:43.512Z,97177.22
2023-06-30T17:20:44.862Z,97179.78
2023-06-30T17:22:46.277Z,97178.97
2023-06-30T17:24:47.614Z,97186.63
2023-06-30T17:26:49.005Z,97188.31
2023-06-30T17:28:50.469Z,97182.31
2023-06-30T17:30:51.837Z,97183.69
2023-06-30T17:32:53.306Z,97182.31
2023-06-30T17:34:54.823Z,97185.25
2023-06-30T17:36:56.637Z,97184.69
2023-06-30T17:38:59.866Z,97180.75
2023-06-30T17:41:01.216Z,97179.69
2023-06-30T17:43:02.629Z,97181.72
2023-06-30T17:45:07.021Z,97179.47
2023-06-30T17:47:08.402Z,97178.94
2023-06-30T17:49:09.740Z,97180.88
2023-06-30T17:51:11.136Z,97185.66
2023-06-30T17:53:12.514Z,97181.03
2023-06-30T17:55:14.002Z,97178.38
2023-06-30T17:57:15.423Z,97180.88
2023-06-30T17:59:16.796Z,97176.13
2023-06-30T18:01:18.280Z,97183.09
2023-06-30T18:03:19.753Z,97178.19
2023-06-30T18:05:21.156Z,97181.72
2023-06-30T18:07:22.735Z,97180.75
2023-06-30T18:09:24.275Z,97184.91
2023-06-30T18:11:25.650Z,97174.00
2023-06-30T18:13:27.060Z,97186.41
2023-06-30T18:15:28.442Z,97185.81
2023-06-30T18:17:29.850Z,97183.59
2023-06-30T18:19:32.085Z,97184.97
2023-06-30T18:21:36.611Z,97180.72
2023-06-30T18:23:37.945Z,97186.81
2023-06-30T18:25:39.292Z,97187.00
2023-06-30T18:27:40.716Z,97181.88
2023-06-30T18:29:43.074Z,97186.34
2023-06-30T18:31:44.510Z,97186.31
2023-06-30T18:33:45.872Z,97194.69
2023-06-30T18:35:47.780Z,97186.72
2023-06-30T18:37:52.336Z,97193.88
2023-06-30T18:39:53.681Z,97192.06
2023-06-30T18:41:56.929Z,97193.78
2023-06-30T18:43:58.269Z,97185.31
2023-06-30T18:45:59.637Z,97187.66
2023-06-30T18:48:01.018Z,97190.09
2023-06-30T18:50:02.479Z,97201.66
2023-06-30T18:52:03.852Z,97222.25
2023-06-30T18:54:05.301Z,97209.97
2023-06-30T18:56:06.719Z,97201.72
2023-06-30T18:58:08.089Z,97199.94
2023-06-30T19:00:09.555Z,97197.16
2023-06-30T19:02:10.908Z,97194.09
2023-06-30T19:04:15.427Z,97192.25
2023-06-30T19:06:16.953Z,97188.69
2023-06-30T19:08:18.338Z,97198.03
2023-06-30T19:10:19.748Z,97198.03
2023-06-30T19:12:23.880Z,97198.03
2023-06-30T19:14:28.169Z,97204.84
2023-06-30T19:16:32.625Z,97209.28
2023-06-30T19:18:35.751Z,97210.88
2023-06-30T19:20:37.913Z,97213.28
2023-06-30T19:22:39.466Z,97214.25
2023-06-30T19:24:43.547Z,97219.34
2023-06-30T19:26:44.963Z,97212.44
2023-06-30T19:28:46.367Z,97213.38
2023-06-30T19:30:47.889Z,97210.72
2023-06-30T19:32:49.249Z,97203.06
2023-06-30T19:34:50.627Z,97215.53
2023-06-30T19:36:59.333Z,97215.91
2023-06-30T19:39:00.732Z,97217.59
2023-06-30T19:41:02.170Z,97218.66
2023-06-30T19:43:03.553Z,97214.41
2023-06-30T19:45:06.109Z,97212.44
2023-06-30T19:47:07.588Z,97221.13
2023-06-30T19:49:08.959Z,97212.16
2023-06-30T19:51:10.381Z,97217.75
2023-06-30T19:53:17.515Z,97215.38
2023-06-30T19:55:19.990Z,97213.16
2023-06-30T19:57:21.371Z,97211.66
2023-06-30T19:59:22.836Z,97213.97
2023-06-30T20:01:26.837Z,97208.75
2023-06-30T20:03:28.344Z,97205.00
2023-06-30T20:05:30.028Z,97195.16
2023-06-30T20:07:32.032Z,97196.91
2023-06-30T20:09:34.044Z,97198.22
2023-06-30T20:11:35.483Z,97204.84
2023-06-30T20:13:40.038Z,97204.84
2023-06-30T20:15:44.059Z,97214.41
2023-06-30T20:17:45.565Z,97210.94
2023-06-30T20:19:52.823Z,97212.78
2023-06-30T20:21:54.166Z,97222.88
2023-06-30T20:23:55.544Z,97218.06
2023-06-30T20:25:56.950Z,97218.09
2023-06-30T20:27:58.420Z,97219.84
2023-06-30T20:29:59.775Z,97214.63
2023-06-30T20:32:01.167Z,97214.50
2023-06-30T20:34:03.187Z,97205.81
2023-06-30T20:36:04.532Z,97211.63
2023-06-30T20:38:05.868Z,97209.50
2023-06-30T20:40:08.539Z,97206.69
2023-06-30T20:42:10.132Z,97211.78
2023-06-30T20:44:14.185Z,97218.34
2023-06-30T20:46:15.666Z,97218.50
2023-06-30T20:48:17.075Z,97208.66
2023-06-30T20:50:18.460Z,97211.78
2023-06-30T20:52:19.837Z,97207.53
2023-06-30T20:54:21.224Z,97206.03
2023-06-30T20:56:22.655Z,97212.66
2023-06-30T20:58:23.990Z,97209.34
2023-06-30T21:00:25.324Z,97208.97
2023-06-30T21:02:26.746Z,97207.81
2023-06-30T21:04:28.172Z,97209.81
2023-06-30T21:06:29.650Z,97210.44
2023-06-30T21:08:31.045Z,97207.63
2023-06-30T21:10:32.386Z,97197.59
2023-06-30T21:12:36.943Z,97204.09
2023-06-30T21:14:38.699Z,97196.09
2023-06-30T21:16:42.290Z,97203.34
2023-06-30T21:18:43.656Z,97197.59
2023-06-30T21:20:45.273Z,97194.28
2023-06-30T21:22:46.881Z,97182.47
2023-06-30T21:24:48.251Z,97185.50
2023-06-30T21:26:49.694Z,97185.50
2023-06-30T21:28:51.110Z,97180.69
2023-06-30T21:30:53.291Z,97185.81
2023-06-30T21:32:57.800Z,97182.94
2023-06-30T21:34:59.477Z,97182.47
2023-06-30T21:37:00.918Z,97182.47
2023-06-30T21:39:02.317Z,97180.06
2023-06-30T21:41:03.661Z,97181.13
2023-06-30T21:43:05.034Z,97183.16
2023-06-30T21:45:06.408Z,97186.16
2023-06-30T21:47:07.768Z,97183.59
2023-06-30T21:49:09.143Z,97189.91
2023-06-30T21:51:10.591Z,97189.56
2023-06-30T21:53:11.969Z,97190.28
2023-06-30T21:55:13.575Z,97180.97
2023-06-30T21:57:14.974Z,97176.81
2023-06-30T21:59:16.325Z,97175.38
2023-06-30T22:01:20.282Z,97182.44
2023-06-30T22:03:24.327Z,97180.28
2023-06-30T22:05:27.431Z,97180.47
2023-06-30T22:07:31.205Z,97169.63
2023-06-30T22:09:32.644Z,97171.44
2023-06-30T22:11:34.001Z,97178.06
2023-06-30T22:13:36.384Z,97174.19
2023-06-30T22:15:37.809Z,97178.28
2023-06-30T22:17:39.301Z,97186.88
2023-06-30T22:19:40.689Z,97177.16
2023-06-30T22:21:42.129Z,97176.81
2023-06-30T22:23:43.489Z,97185.22
2023-06-30T22:25:44.848Z,97180.63
2023-06-30T22:27:46.392Z,97178.97
2023-06-30T22:29:47.743Z,97180.47
2023-06-30T22:31:49.371Z,97180.16
2023-06-30T22:33:50.748Z,97178.19
2023-06-30T22:35:52.096Z,97182.72
2023-06-30T22:37:53.672Z,97176.59
2023-06-30T22:39:55.292Z,97181.28
2023-06-30T22:41:56.672Z,97177.06
2023-06-30T22:43:58.164Z,97179.63
2023-06-30T22:46:01.887Z,97174.97
2023-06-30T22:48:03.349Z,97175.63
2023-06-30T22:50:04.812Z,97168.00
2023-06-30T22:52:06.262Z,97179.56
2023-06-30T22:54:07.593Z,97179.66
2023-06-30T22:56:10.095Z,97177.00
2023-06-30T22:58:11.444Z,97189.31
2023-06-30T23:00:12.769Z,97190.34
2023-06-30T23:02:14.156Z,97189.03
2023-06-30T23:04:15.664Z,97192.91
2023-06-30T23:06:17.083Z,97193.22
2023-06-30T23:08:18.485Z,97192.66
2023-06-30T23:10:19.815Z,97197.03
2023-06-30T23:12:21.173Z,97195.47
2023-06-30T23:14:24.329Z,97192.28
2023-06-30T23:16:25.742Z,97184.81
2023-06-30T23:18:27.225Z,97176.50
2023-06-30T23:20:28.656Z,97174.81
2023-06-30T23:22:30.776Z,97180.09
2023-06-30T23:24:33.904Z,97175.09
2023-06-30T23:26:35.335Z,97174.34
2023-06-30T23:28:36.733Z,97177.91
2023-06-30T23:30:38.132Z,97181.38
2023-06-30T23:32:47.262Z,97185.75
2023-06-30T23:34:49.016Z,97174.72
2023-06-30T23:36:50.465Z,97179.84
2023-06-30T23:38:51.801Z,97180.81
2023-06-30T23:40:53.128Z,97180.03
2023-06-30T23:42:54.652Z,97184.34
2023-06-30T23:44:55.989Z,97187.00
2023-06-30T23:46:57.342Z,97188.81
2023-06-30T23:48:58.811Z,97186.34
2023-06-30T23:51:00.159Z,97194.91
2023-06-30T23:53:01.516Z,97184.66
2023-06-30T23:55:02.858Z,97185.53
2023-06-30T23:57:04.214Z,97179.63
2023-06-30T23:59:05.554Z,97176.28
